Time;durP1;ratioP1;P1;durP2;ratioP2;P2;SDS_P1;SDS_P2;PMS_P1;PMS_P2;Temp;Humidity;BMP_temperature;BMP_pressure;BME280_temperature;BME280_humidity;BME280_pressure;Samples;Min_cycle;Max_cycle;Signal;HPM_P1;HPM_P2
2021/10/14 00:00:11;;;;;;;15.55;11.48;;;;;;;8.56;100.00;101908.22;683531;28;1081;-64
2021/10/14 00:00:31;;;;;;;16.40;11.73;;;;;;;8.58;100.00;101914.34;683139;28;911;-59
2021/10/14 00:00:52;;;;;;;16.43;11.80;;;;;;;8.57;100.00;101915.19;685722;28;1011;-58
2021/10/14 00:01:12;;;;;;;18.23;12.07;;;;;;;8.55;100.00;101917.75;685911;28;3176;-59
2021/10/14 00:01:33;;;;;;;17.60;12.50;;;;;;;8.57;100.00;101915.19;683888;28;4414;-58
2021/10/14 00:01:53;;;;;;;17.30;12.47;;;;;;;8.57;100.00;101916.09;685652;28;1358;-59
2021/10/14 00:02:16;;;;;;;16.65;12.05;;;;;;;8.58;100.00;101915.22;683424;28;1206;-59
2021/10/14 00:02:36;;;;;;;15.48;11.90;;;;;;;8.58;100.00;101907.41;685884;28;1085;-59
2021/10/14 00:02:58;;;;;;;16.50;12.38;;;;;;;8.59;100.00;101910.91;686956;28;1121;-58
2021/10/14 00:03:18;;;;;;;21.60;12.68;;;;;;;8.59;100.00;101916.97;684801;28;1207;-59
2021/10/14 00:03:42;;;;;;;18.63;12.17;;;;;;;8.60;100.00;101904.81;686005;28;1185;-58
2021/10/14 00:04:02;;;;;;;16.02;11.77;;;;;;;8.60;100.00;101916.16;684237;28;2430;-60
2021/10/14 00:04:23;;;;;;;17.63;12.40;;;;;;;8.58;100.00;101911.75;684118;28;4526;-59
2021/10/14 00:04:43;;;;;;;17.90;12.40;;;;;;;8.58;100.00;101911.75;683977;28;2571;-58
2021/10/14 00:05:04;;;;;;;18.60;12.40;;;;;;;8.58;100.00;101910.00;684124;28;1171;-56
2021/10/14 00:05:24;;;;;;;17.35;12.05;;;;;;;8.60;100.00;101915.25;684405;28;1009;-58
2021/10/14 00:05:45;;;;;;;17.03;11.33;;;;;;;8.60;100.00;101910.03;684304;28;1153;-59
2021/10/14 00:06:05;;;;;;;16.03;10.50;;;;;;;8.60;100.00;101916.16;684633;28;1253;-57
2021/10/14 00:06:28;;;;;;;18.60;11.90;;;;;;;8.60;100.00;101910.94;683007;28;1057;-59
2021/10/14 00:06:50;;;;;;;17.83;12.30;;;;;;;8.61;100.00;101911.81;686146;28;1163;-59
2021/10/14 00:07:10;;;;;;;16.83;12.05;;;;;;;8.61;100.00;101917.00;686171;28;1125;-59
2021/10/14 00:07:31;;;;;;;15.50;12.10;;;;;;;8.60;100.00;101910.03;686572;28;4405;-56
2021/10/14 00:07:51;;;;;;;16.57;12.57;;;;;;;8.60;100.00;101910.03;686570;28;1166;-58
2021/10/14 00:08:12;;;;;;;17.10;12.60;;;;;;;8.60;100.00;101912.63;686239;28;1197;-60
2021/10/14 00:08:32;;;;;;;17.60;12.50;;;;;;;8.60;100.00;101912.63;685122;28;1386;-60
2021/10/14 00:08:53;;;;;;;17.38;12.73;;;;;;;8.60;100.00;101913.53;683077;28;1405;-59
2021/10/14 00:09:14;;;;;;;17.07;12.30;;;;;;;8.60;100.00;101912.63;684883;28;1118;-58
2021/10/14 00:09:34;;;;;;;17.67;12.20;;;;;;;8.61;100.00;101917.91;683884;28;1169;-58
2021/10/14 00:09:55;;;;;;;18.27;12.90;;;;;;;8.61;100.00;101912.72;684338;28;1199;-58
2021/10/14 00:10:15;;;;;;;16.75;13.32;;;;;;;8.61;100.00;101915.31;683838;28;1081;-59
2021/10/14 00:10:36;;;;;;;16.00;13.27;;;;;;;8.62;100.00;101917.06;684008;28;4441;-58
2021/10/14 00:10:56;;;;;;;16.25;12.60;;;;;;;8.62;100.00;101913.56;683831;28;2254;-60
2021/10/14 00:11:17;;;;;;;16.77;12.20;;;;;;;8.61;100.00;101912.72;683331;28;1279;-60
2021/10/14 00:11:37;;;;;;;17.93;12.50;;;;;;;8.61;100.00;101917.91;681902;28;1329;-57
2021/10/14 00:11:58;;;;;;;17.80;12.88;;;;;;;8.60;100.00;101912.63;680978;28;1232;-59
2021/10/14 00:12:18;;;;;;;17.97;13.13;;;;;;;8.59;100.00;101914.38;681501;28;1030;-60
2021/10/14 00:12:38;;;;;;;17.73;13.23;;;;;;;8.59;100.00;101909.16;681828;28;1125;-59
2021/10/14 00:12:59;;;;;;;18.93;13.20;;;;;;;8.59;100.00;101914.38;683595;28;1160;-60
2021/10/14 00:13:19;;;;;;;18.65;13.15;;;;;;;8.58;100.00;101904.78;684036;28;4453;-59
2021/10/14 00:13:40;;;;;;;19.00;13.30;;;;;;;8.60;100.00;101917.84;686448;28;2930;-58
2021/10/14 00:14:00;;;;;;;17.83;13.17;;;;;;;8.60;100.00;101915.25;685680;28;3729;-60
2021/10/14 00:14:21;;;;;;;20.42;13.38;;;;;;;8.61;100.00;101914.41;688265;28;1450;-60
2021/10/14 00:14:41;;;;;;;18.13;13.57;;;;;;;8.61;100.00;101911.81;684694;28;1402;-59
2021/10/14 00:15:02;;;;;;;18.27;13.75;;;;;;;8.61;100.00;101911.81;684655;28;1191;-59
2021/10/14 00:15:23;;;;;;;18.13;13.00;;;;;;;8.62;100.00;101909.22;683665;28;1152;-59
2021/10/14 00:15:44;;;;;;;15.88;12.20;;;;;;;8.62;100.00;101917.06;684044;28;1275;-60
2021/10/14 00:16:04;;;;;;;16.07;12.03;;;;;;;8.63;100.00;101915.34;683074;28;1144;-60
2021/10/14 00:16:24;;;;;;;18.43;12.77;;;;;;;8.64;100.00;101911.88;682799;28;4591;-59
2021/10/14 00:16:45;;;;;;;19.87;13.10;;;;;;;8.63;100.00;101911.00;683159;28;4556;-60
2021/10/14 00:17:05;;;;;;;19.13;12.95;;;;;;;8.64;100.00;101912.75;683788;28;3825;-59
2021/10/14 00:17:26;;;;;;;19.47;13.70;;;;;;;8.63;100.00;101910.13;684618;28;1057;-59
2021/10/14 00:17:47;;;;;;;19.88;13.43;;;;;;;8.65;100.00;101916.25;682937;28;1230;-58
2021/10/14 00:18:07;;;;;;;19.10;13.23;;;;;;;8.63;100.00;101913.59;683885;28;1291;-59
2021/10/14 00:18:28;;;;;;;17.38;13.55;;;;;;;8.62;100.00;101910.97;683244;28;1116;-55
2021/10/14 00:18:48;;;;;;;18.97;13.37;;;;;;;8.61;100.00;101914.41;684418;28;924;-59
2021/10/14 00:19:08;;;;;;;18.88;13.15;;;;;;;8.61;100.00;101907.50;684458;28;1115;-59
2021/10/14 00:19:29;;;;;;;19.07;13.23;;;;;;;8.61;100.00;101910.09;682938;28;4602;-57
2021/10/14 00:19:49;;;;;;;20.70;13.73;;;;;;;8.61;100.00;101914.41;682176;28;3418;-58
2021/10/14 00:20:10;;;;;;;19.75;13.85;;;;;;;8.63;100.00;101917.94;683849;28;1574;-59
2021/10/14 00:20:31;;;;;;;16.48;12.35;;;;;;;8.62;100.00;101910.97;684534;28;1298;-60
2021/10/14 00:20:51;;;;;;;15.65;12.45;;;;;;;8.62;100.00;101917.06;686226;28;1146;-59
2021/10/14 00:21:11;;;;;;;17.47;13.27;;;;;;;8.63;100.00;101915.34;687468;28;1170;-60
2021/10/14 00:21:32;;;;;;;17.97;13.20;;;;;;;8.64;100.00;101919.69;688006;28;1061;-60
2021/10/14 00:21:52;;;;;;;18.90;13.13;;;;;;;8.64;100.00;101911.88;686018;28;1228;-58
2021/10/14 00:22:13;;;;;;;18.23;13.37;;;;;;;8.64;100.00;101912.75;686745;28;1077;-60
2021/10/14 00:22:33;;;;;;;18.70;13.97;;;;;;;8.64;100.00;101912.75;686086;28;4457;-60
2021/10/14 00:22:54;;;;;;;18.30;13.00;;;;;;;8.64;100.00;101912.75;686727;28;3415;-58
2021/10/14 00:23:15;;;;;;;16.15;11.70;;;;;;;8.65;100.00;101908.41;684549;28;1292;-58
2021/10/14 00:23:35;;;;;;;17.63;12.03;;;;;;;8.65;100.00;101909.31;680495;28;1088;-58
2021/10/14 00:23:56;;;;;;;17.95;13.00;;;;;;;8.66;100.00;101912.81;680857;28;1377;-57
2021/10/14 00:24:16;;;;;;;18.67;13.13;;;;;;;8.66;100.00;101910.19;680729;28;1129;-59
2021/10/14 00:24:36;;;;;;;18.47;13.40;;;;;;;8.66;100.00;101915.41;680906;28;1140;-59
2021/10/14 00:24:57;;;;;;;20.77;13.43;;;;;;;8.65;100.00;101909.31;680845;28;1113;-58
2021/10/14 00:25:19;;;;;;;20.83;13.70;;;;;;;8.65;100.00;101908.41;683268;28;4467;-59
2021/10/14 00:25:40;;;;;;;17.90;13.85;;;;;;;8.65;100.00;101908.41;683749;28;1268;-58
2021/10/14 00:26:00;;;;;;;18.67;12.93;;;;;;;8.64;100.00;101911.88;684183;28;3633;-58
2021/10/14 00:26:21;;;;;;;19.65;13.15;;;;;;;8.63;100.00;101915.34;683456;28;1028;-59
2021/10/14 00:26:41;;;;;;;21.17;13.33;;;;;;;8.63;100.00;101915.34;683982;28;1595;-60
2021/10/14 00:27:01;;;;;;;21.40;13.60;;;;;;;8.63;100.00;101912.72;683887;28;1011;-56
2021/10/14 00:27:22;;;;;;;20.50;13.63;;;;;;;8.62;100.00;101911.84;683839;28;1093;-59
2021/10/14 00:27:42;;;;;;;19.23;13.18;;;;;;;8.61;100.00;101906.59;684629;28;1227;-59
2021/10/14 00:28:03;;;;;;;18.40;13.20;;;;;;;8.62;100.00;101913.56;684297;28;1127;-57
2021/10/14 00:28:23;;;;;;;17.73;13.13;;;;;;;8.62;100.00;101916.19;683866;28;4427;-59
2021/10/14 00:28:44;;;;;;;19.70;13.10;;;;;;;8.62;100.00;101913.56;684361;28;1305;-56
2021/10/14 00:29:04;;;;;;;19.80;13.43;;;;;;;8.62;100.00;101910.97;684016;28;3593;-59
2021/10/14 00:29:24;;;;;;;19.90;13.77;;;;;;;8.62;100.00;101918.78;683275;28;3942;-60
2021/10/14 00:29:45;;;;;;;20.63;14.10;;;;;;;8.62;100.00;101921.41;683688;28;1215;-58
2021/10/14 00:30:06;;;;;;;18.67;13.83;;;;;;;8.61;100.00;101911.81;684541;28;1076;-59
2021/10/14 00:30:27;;;;;;;19.08;13.65;;;;;;;8.62;100.00;101908.34;684161;28;1247;-59
2021/10/14 00:30:47;;;;;;;18.38;13.55;;;;;;;8.62;100.00;101914.44;684208;28;1259;-59
2021/10/14 00:31:08;;;;;;;19.92;13.57;;;;;;;8.62;100.00;101906.63;683791;28;1374;-58
2021/10/14 00:31:28;;;;;;;22.93;13.97;;;;;;;8.61;100.00;101911.81;684651;28;4574;-59
2021/10/14 00:31:48;;;;;;;21.25;13.77;;;;;;;8.61;100.00;101912.72;684141;28;1104;-59
2021/10/14 00:32:09;;;;;;;21.07;13.70;;;;;;;8.60;100.00;101916.16;683736;28;3483;-58
2021/10/14 00:32:29;;;;;;;19.17;13.13;;;;;;;8.62;100.00;101916.19;683853;28;3655;-59
2021/10/14 00:32:49;;;;;;;14.97;12.10;;;;;;;8.61;100.00;101912.72;683756;28;1220;-58
2021/10/14 00:33:10;;;;;;;15.70;11.83;;;;;;;8.62;100.00;101914.44;684347;28;1334;-56
2021/10/14 00:33:30;;;;;;;18.08;13.27;;;;;;;8.61;100.00;101915.31;684919;28;1265;-60
2021/10/14 00:33:52;;;;;;;20.48;13.90;;;;;;;8.61;100.00;101911.81;684581;28;1053;-59
2021/10/14 00:34:12;;;;;;;21.92;14.60;;;;;;;8.61;100.00;101917.00;683808;28;1065;-60
2021/10/14 00:34:32;;;;;;;21.63;14.20;;;;;;;8.61;100.00;101915.31;684851;28;4469;-59
2021/10/14 00:34:52;;;;;;;20.17;13.80;;;;;;;8.61;100.00;101911.81;685650;28;989;-56
2021/10/14 00:35:13;;;;;;;20.40;13.50;;;;;;;8.62;100.00;101914.44;684179;28;3346;-59
2021/10/14 00:35:33;;;;;;;20.17;12.90;;;;;;;8.61;100.00;101906.59;683609;28;4298;-59
2021/10/14 00:35:54;;;;;;;18.38;12.70;;;;;;;8.62;100.00;101914.44;685011;28;1450;-59
2021/10/14 00:36:14;;;;;;;18.53;13.03;;;;;;;8.63;100.00;101913.59;687120;28;1536;-57
2021/10/14 00:36:35;;;;;;;19.90;13.85;;;;;;;8.63;100.00;101910.13;684684;28;1148;-60
2021/10/14 00:36:55;;;;;;;18.57;13.57;;;;;;;8.62;100.00;101910.97;683386;28;1188;-59
2021/10/14 00:37:16;;;;;;;19.73;13.77;;;;;;;8.63;100.00;101907.53;684337;28;1049;-58
2021/10/14 00:37:36;;;;;;;21.30;14.07;;;;;;;8.64;100.00;101917.09;684544;28;4609;-59
2021/10/14 00:37:57;;;;;;;19.23;12.57;;;;;;;8.63;100.00;101911.00;684906;28;1100;-58
2021/10/14 00:38:17;;;;;;;16.42;12.13;;;;;;;8.64;100.00;101909.25;684604;28;3776;-59
2021/10/14 00:38:37;;;;;;;16.53;12.60;;;;;;;8.65;100.00;101913.63;683572;28;3691;-58
2021/10/14 00:38:58;;;;;;;17.23;12.30;;;;;;;8.65;100.00;101917.16;683775;28;1530;-58
2021/10/14 00:39:18;;;;;;;17.70;13.02;;;;;;;8.66;100.00;101912.81;684462;28;1253;-59
2021/10/14 00:39:39;;;;;;;20.13;13.67;;;;;;;8.68;100.00;101913.69;683288;28;3514;-59
2021/10/14 00:39:59;;;;;;;19.08;13.45;;;;;;;8.67;100.00;101912.84;683735;28;1101;-59
2021/10/14 00:40:22;;;;;;;19.23;13.50;;;;;;;8.67;100.00;101912.84;683791;28;4423;-56
2021/10/14 00:40:43;;;;;;;17.90;13.45;;;;;;;8.67;100.00;101915.44;684685;28;1239;-60
2021/10/14 00:41:04;;;;;;;17.55;12.88;;;;;;;8.69;100.00;101907.66;685444;28;1358;-58
2021/10/14 00:41:24;;;;;;;18.90;12.60;;;;;;;8.67;100.00;101915.44;687647;28;1139;-60
2021/10/14 00:41:45;;;;;;;19.83;13.20;;;;;;;8.69;100.00;101915.47;686038;28;3781;-57
2021/10/14 00:42:05;;;;;;;18.47;13.13;;;;;;;8.68;100.00;101908.47;687996;28;1440;-59
2021/10/14 00:42:25;;;;;;;20.03;13.50;;;;;;;8.68;100.00;101913.69;685670;28;1224;-59
2021/10/14 00:42:46;;;;;;;19.80;13.60;;;;;;;8.68;100.00;101916.31;686251;28;1318;-58
2021/10/14 00:43:06;;;;;;;18.52;13.38;;;;;;;8.68;100.00;101913.69;686646;28;1330;-59
2021/10/14 00:43:27;;;;;;;17.57;12.90;;;;;;;8.68;100.00;101908.47;683553;28;4330;-58
2021/10/14 00:43:47;;;;;;;17.40;12.77;;;;;;;8.68;100.00;101911.09;683747;28;1168;-59
2021/10/14 00:44:08;;;;;;;18.23;12.93;;;;;;;8.67;100.00;101915.44;684584;28;1232;-59
2021/10/14 00:44:50;;;;;;;18.08;13.30;;;;;;;8.67;100.00;101911.97;684005;28;4030;-58
2021/10/14 00:45:12;;;;;;;19.13;13.52;;;;;;;8.66;100.00;101907.59;683994;28;1271;-57
2021/10/14 00:45:32;;;;;;;18.63;13.13;;;;;;;8.66;100.00;101907.59;684689;28;1426;-58
2021/10/14 00:45:52;;;;;;;20.00;13.70;;;;;;;8.65;100.00;101904.13;684739;28;1092;-59
2021/10/14 00:46:17;;;;;;;22.52;14.18;;;;;;;8.65;100.00;101905.81;684257;28;1086;-55
2021/10/14 00:46:37;;;;;;;22.77;14.05;;;;;;;8.64;100.00;101904.94;682703;28;4727;-57
2021/10/14 00:46:57;;;;;;;20.60;13.53;;;;;;;8.64;100.00;101901.44;684811;28;1353;-59
2021/10/14 00:47:21;;;;;;;20.15;14.02;;;;;;;8.65;100.00;101903.22;687277;28;1077;-58
2021/10/14 00:47:41;;;;;;;20.88;14.23;;;;;;;8.64;100.00;101907.56;686478;28;3324;-59
2021/10/14 00:48:02;;;;;;;20.08;13.45;;;;;;;8.65;100.00;101906.72;683684;28;888;-58
2021/10/14 00:48:22;;;;;;;17.90;12.90;;;;;;;8.66;100.00;101907.59;684791;28;1279;-58
2021/10/14 00:48:43;;;;;;;18.23;12.95;;;;;;;8.66;100.00;101903.25;684519;28;1092;-62
2021/10/14 00:49:03;;;;;;;19.25;13.65;;;;;;;8.67;100.00;101904.16;684666;28;1251;-59
2021/10/14 00:49:24;;;;;;;20.63;14.27;;;;;;;8.67;100.00;101910.22;684798;28;4611;-58
2021/10/14 00:49:44;;;;;;;19.47;13.70;;;;;;;8.67;100.00;101905.00;684637;28;1157;-58
2021/10/14 00:50:07;;;;;;;19.37;13.43;;;;;;;8.68;100.00;101905.88;685028;28;1295;-59
2021/10/14 00:50:27;;;;;;;20.67;13.50;;;;;;;8.67;100.00;101906.75;684929;28;1151;-60
2021/10/14 00:50:47;;;;;;;20.70;13.97;;;;;;;8.67;100.00;101905.00;683430;28;3325;-59
2021/10/14 00:51:08;;;;;;;20.27;14.10;;;;;;;8.67;100.00;101901.53;683323;28;1195;-57
2021/10/14 00:51:29;;;;;;;20.63;13.83;;;;;;;8.68;100.00;101908.47;684048;28;1162;-59
2021/10/14 00:51:49;;;;;;;22.95;14.02;;;;;;;8.67;100.00;101902.41;683282;28;1039;-58
2021/10/14 00:52:10;;;;;;;19.93;13.53;;;;;;;8.68;100.00;101908.47;683296;28;1153;-57
2021/10/14 00:52:32;;;;;;;18.13;13.25;;;;;;;8.68;100.00;101900.66;683675;28;4610;-58
2021/10/14 00:52:54;;;;;;;20.48;13.73;;;;;;;8.67;100.00;101904.16;684198;28;1263;-58
2021/10/14 00:53:14;;;;;;;22.40;14.10;;;;;;;8.67;100.00;101906.75;683852;28;1227;-59
2021/10/14 00:53:38;;;;;;;20.48;13.65;;;;;;;8.68;100.00;101904.16;682059;28;1478;-58
2021/10/14 00:53:58;;;;;;;17.85;13.25;;;;;;;8.67;100.00;101899.78;682331;28;4185;-58
2021/10/14 00:54:20;;;;;;;17.02;12.50;;;;;;;8.67;100.00;101899.78;683562;28;1579;-60
2021/10/14 00:54:41;;;;;;;17.25;12.50;;;;;;;8.68;100.00;101903.28;684618;28;1304;-57
2021/10/14 00:55:02;;;;;;;18.67;13.10;;;;;;;8.69;100.00;101897.22;682232;28;1387;-59
2021/10/14 00:55:24;;;;;;;20.58;13.50;;;;;;;8.71;100.00;101897.25;679272;28;4591;-60
2021/10/14 00:55:44;;;;;;;19.92;13.38;;;;;;;8.72;100.00;101899.03;681582;28;1201;-59
2021/10/14 00:56:08;;;;;;;18.50;13.60;;;;;;;8.69;100.00;101897.22;681258;28;1300;-58
2021/10/14 00:56:29;;;;;;;20.38;13.60;;;;;;;8.68;100.00;101903.28;681044;28;1101;-59
2021/10/14 00:56:49;;;;;;;20.55;13.48;;;;;;;8.68;100.00;101904.16;683232;28;3357;-59
2021/10/14 00:57:11;;;;;;;20.57;13.90;;;;;;;8.68;100.00;101892.84;683871;28;3589;-59
2021/10/14 00:57:32;;;;;;;19.60;13.63;;;;;;;8.67;100.00;101891.09;684569;28;1416;-60
2021/10/14 00:57:53;;;;;;;22.23;13.80;;;;;;;8.67;100.00;101899.78;683721;28;1156;-58
2021/10/14 00:58:13;;;;;;;21.90;14.23;;;;;;;8.68;100.00;101900.66;684322;28;1037;-59
2021/10/14 00:58:35;;;;;;;21.57;14.13;;;;;;;8.67;100.00;101891.97;683779;28;4309;-59
2021/10/14 00:58:56;;;;;;;20.70;14.45;;;;;;;8.69;100.00;101894.63;684065;28;1001;-58
2021/10/14 00:59:18;;;;;;;18.10;13.23;;;;;;;8.69;100.00;101894.63;684251;28;927;-58
2021/10/14 00:59:39;;;;;;;17.67;13.00;;;;;;;8.71;100.00;101897.25;683417;28;1993;-59
2021/10/14 01:00:00;;;;;;;19.63;12.98;;;;;;;8.71;100.00;101898.16;683961;28;3605;-58
2021/10/14 01:00:20;;;;;;;22.50;13.57;;;;;;;8.71;100.00;101892.94;683736;28;2265;-56
2021/10/14 01:00:41;;;;;;;22.73;13.63;;;;;;;8.71;100.00;101895.53;684692;28;1272;-59
2021/10/14 01:01:03;;;;;;;19.42;14.00;;;;;;;8.71;100.00;101898.16;682635;28;1443;-60
2021/10/14 01:01:24;;;;;;;18.08;13.82;;;;;;;8.71;100.00;101898.16;682067;28;4460;-57
2021/10/14 01:01:44;;;;;;;19.45;13.73;;;;;;;8.72;100.00;101893.81;683044;28;1006;-57
2021/10/14 01:02:06;;;;;;;21.37;13.90;;;;;;;8.72;100.00;101892.06;682769;28;1344;-61
2021/10/14 01:02:26;;;;;;;23.23;14.23;;;;;;;8.71;100.00;101892.94;680177;28;1276;-58
2021/10/14 01:02:46;;;;;;;21.97;13.70;;;;;;;8.69;100.00;101889.41;681406;28;1122;-58
2021/10/14 01:03:07;;;;;;;22.00;13.77;;;;;;;8.71;100.00;101892.03;684421;28;3202;-57
2021/10/14 01:03:27;;;;;;;21.33;13.82;;;;;;;8.69;100.00;101889.41;683025;28;2312;-57
2021/10/14 01:03:48;;;;;;;19.02;13.63;;;;;;;8.70;100.00;101893.78;683842;28;1067;-58
2021/10/14 01:04:08;;;;;;;20.67;14.33;;;;;;;8.68;100.00;101888.53;683490;28;1032;-57
2021/10/14 01:04:29;;;;;;;20.13;14.13;;;;;;;8.69;100.00;101894.63;683716;28;4315;-54
2021/10/14 01:04:49;;;;;;;19.10;13.80;;;;;;;8.69;100.00;101889.41;685116;28;1165;-56
2021/10/14 01:05:10;;;;;;;20.60;13.70;;;;;;;8.69;100.00;101885.09;683353;28;1104;-58
2021/10/14 01:05:30;;;;;;;19.17;13.02;;;;;;;8.69;100.00;101890.31;684006;28;994;-58
2021/10/14 01:05:50;;;;;;;15.70;11.88;;;;;;;8.69;100.00;101885.09;683482;28;1262;-58
2021/10/14 01:06:11;;;;;;;16.73;11.90;;;;;;;8.69;100.00;101884.19;683396;28;3093;-56
2021/10/14 01:06:32;;;;;;;19.73;13.30;;;;;;;8.69;100.00;101886.78;682614;28;3499;-55
2021/10/14 01:06:52;;;;;;;21.92;14.02;;;;;;;8.71;100.00;101886.81;685037;28;1258;-57
2021/10/14 01:07:14;;;;;;;21.92;14.05;;;;;;;8.69;100.00;101887.69;684494;28;1147;-58
2021/10/14 01:07:34;;;;;;;18.40;13.05;;;;;;;8.71;100.00;101892.94;683558;28;4286;-57
2021/10/14 01:07:55;;;;;;;19.20;13.27;;;;;;;8.70;100.00;101885.94;683152;28;1435;-57
2021/10/14 01:08:15;;;;;;;19.52;13.55;;;;;;;8.70;100.00;101885.94;685068;28;1152;-59
2021/10/14 01:08:36;;;;;;;21.17;13.90;;;;;;;8.70;100.00;101880.75;683429;28;1006;-58
2021/10/14 01:08:57;;;;;;;20.63;13.50;;;;;;;8.71;100.00;101886.81;679414;28;1072;-59
2021/10/14 01:09:17;;;;;;;21.08;13.35;;;;;;;8.72;100.00;101885.97;680674;29;3239;-56
2021/10/14 01:09:40;;;;;;;20.13;13.80;;;;;;;8.72;100.00;101885.97;678982;29;3989;-58
2021/10/14 01:10:01;;;;;;;18.45;12.77;;;;;;;8.71;100.00;101885.13;678976;29;1194;-57
2021/10/14 01:10:21;;;;;;;18.77;12.90;;;;;;;8.72;100.00;101883.38;679370;29;4508;-58
2021/10/14 01:10:41;;;;;;;17.97;12.83;;;;;;;8.71;100.00;101882.50;680305;28;1054;-57
2021/10/14 01:11:02;;;;;;;15.60;12.15;;;;;;;8.72;100.00;101878.16;685185;28;1065;-56
2021/10/14 01:11:23;;;;;;;16.00;11.77;;;;;;;8.72;100.00;101881.63;683919;28;915;-57
2021/10/14 01:11:43;;;;;;;18.13;12.30;;;;;;;8.73;100.00;101880.81;682995;28;1049;-61
2021/10/14 01:12:05;;;;;;;20.20;13.73;;;;;;;8.74;100.00;101884.31;684367;28;1217;-57
2021/10/14 01:12:27;;;;;;;19.83;13.77;;;;;;;8.73;100.00;101870.38;684669;28;3355;-57
2021/10/14 01:12:48;;;;;;;20.05;14.10;;;;;;;8.74;100.00;101877.34;682508;28;5361;-57
2021/10/14 01:13:08;;;;;;;19.75;13.90;;;;;;;8.75;100.00;101875.63;685083;28;1362;-58
2021/10/14 01:13:28;;;;;;;19.90;13.60;;;;;;;8.75;100.00;101876.53;682969;28;4493;-58
2021/10/14 01:13:49;;;;;;;17.97;13.10;;;;;;;8.75;100.00;101873.91;683761;28;1273;-59
2021/10/14 01:14:09;;;;;;;21.17;13.93;;;;;;;8.75;100.00;101873.00;683680;28;1083;-59
2021/10/14 01:14:31;;;;;;;21.00;14.33;;;;;;;8.75;100.00;101868.69;685064;28;1095;-58
2021/10/14 01:14:52;;;;;;;22.75;14.10;;;;;;;8.75;100.00;101868.69;684487;28;1131;-58
2021/10/14 01:15:26;;;;;;;21.52;14.00;;;;;;;8.75;100.00;101870.41;683869;28;1105;-59
2021/10/14 01:15:46;;;;;;;20.73;13.38;;;;;;;8.75;100.00;101870.41;683335;28;3368;-58
2021/10/14 01:16:07;;;;;;;21.33;13.70;;;;;;;8.75;100.00;101873.00;682990;28;1467;-58
2021/10/14 01:16:29;;;;;;;20.37;13.93;;;;;;;8.75;100.00;101868.69;683511;28;4360;-59
2021/10/14 01:16:50;;;;;;;21.23;13.63;;;;;;;8.76;100.00;101864.34;686199;28;1040;-58
2021/10/14 01:17:10;;;;;;;22.30;14.20;;;;;;;8.74;100.00;101868.66;687282;28;1141;-57
2021/10/14 01:17:31;;;;;;;20.25;14.07;;;;;;;8.73;100.00;101862.56;686144;28;1755;-58
2021/10/14 01:17:51;;;;;;;19.87;14.10;;;;;;;8.74;100.00;101871.28;686845;28;1092;-55
2021/10/14 01:18:13;;;;;;;20.83;13.82;;;;;;;8.73;100.00;101867.78;686330;28;1100;-56
2021/10/14 01:18:33;;;;;;;19.92;13.40;;;;;;;8.74;100.00;101861.72;686205;28;3556;-57
2021/10/14 01:18:53;;;;;;;19.58;13.98;;;;;;;8.74;100.00;101861.72;686026;28;3537;-57
2021/10/14 01:19:15;;;;;;;22.20;14.17;;;;;;;8.76;100.00;101856.53;686831;28;1145;-56
2021/10/14 01:19:39;;;;;;;20.23;14.15;;;;;;;8.76;100.00;101862.63;683713;28;4382;-58
2021/10/14 01:19:59;;;;;;;21.27;13.48;;;;;;;8.79;100.00;101864.41;683016;28;1088;-58
2021/10/14 01:20:20;;;;;;;21.75;13.35;;;;;;;8.78;100.00;101860.94;682024;28;1057;-58
2021/10/14 01:20:41;;;;;;;19.83;13.17;;;;;;;8.78;100.00;101863.53;683274;28;958;-55
2021/10/14 01:21:01;;;;;;;20.20;13.30;;;;;;;8.78;100.00;101862.69;683556;28;1206;-59
2021/10/14 01:21:22;;;;;;;20.10;13.90;;;;;;;8.77;100.00;101861.78;683673;28;1081;-57
2021/10/14 01:21:42;;;;;;;20.77;13.90;;;;;;;8.78;100.00;101862.69;683278;28;3508;-58
2021/10/14 01:22:03;;;;;;;22.02;13.85;;;;;;;8.77;100.00;101861.78;683605;28;3651;-58
2021/10/14 01:22:23;;;;;;;20.07;13.40;;;;;;;8.78;100.00;101865.28;682718;28;4389;-58
2021/10/14 01:22:43;;;;;;;20.45;13.27;;;;;;;8.77;100.00;101864.38;684432;28;1478;-58
2021/10/14 01:23:04;;;;;;;19.90;13.03;;;;;;;8.77;100.00;101859.16;684639;28;1036;-58
2021/10/14 01:23:24;;;;;;;20.03;13.47;;;;;;;8.75;100.00;101862.59;684686;28;1075;-58
2021/10/14 01:23:45;;;;;;;18.98;13.00;;;;;;;8.75;100.00;101863.47;684255;28;963;-56
2021/10/14 01:24:06;;;;;;;19.20;12.90;;;;;;;8.75;100.00;101862.59;684026;28;1077;-58
2021/10/14 01:24:26;;;;;;;20.92;13.40;;;;;;;8.75;100.00;101860.88;682856;28;1106;-57
2021/10/14 01:24:47;;;;;;;22.40;13.77;;;;;;;8.75;100.00;101859.97;683521;28;3709;-59
2021/10/14 01:25:08;;;;;;;20.55;13.82;;;;;;;8.75;100.00;101863.47;683838;28;2465;-58
2021/10/14 01:25:30;;;;;;;21.17;14.00;;;;;;;8.77;100.00;101860.91;681600;28;4331;-55
2021/10/14 01:25:50;;;;;;;19.42;13.75;;;;;;;8.76;100.00;101865.22;681533;28;1361;-57
2021/10/14 01:26:11;;;;;;;19.97;13.53;;;;;;;8.79;100.00;101859.19;681192;28;1118;-57
2021/10/14 01:26:31;;;;;;;20.17;13.07;;;;;;;8.81;100.00;101858.38;680672;28;1213;-55
2021/10/14 01:26:51;;;;;;;18.93;13.00;;;;;;;8.84;100.00;101862.78;681963;28;1045;-60
2021/10/14 01:27:12;;;;;;;17.92;12.85;;;;;;;8.82;100.00;101857.53;681488;28;1113;-59
2021/10/14 01:27:33;;;;;;;20.55;12.93;;;;;;;8.83;100.00;101861.03;684237;28;1227;-58
2021/10/14 01:27:53;;;;;;;21.47;13.70;;;;;;;8.83;100.00;101850.59;684175;28;1986;-58
2021/10/14 01:28:14;;;;;;;19.73;13.00;;;;;;;8.85;100.00;101861.94;682548;28;2365;-59
2021/10/14 01:28:35;;;;;;;18.63;12.65;;;;;;;8.84;100.00;101855.84;683075;28;4484;-58
2021/10/14 01:28:56;;;;;;;18.70;12.80;;;;;;;8.83;100.00;101851.50;683727;28;1124;-60
2021/10/14 01:29:17;;;;;;;19.92;13.15;;;;;;;8.84;100.00;101853.22;683191;28;1109;-59
2021/10/14 01:29:37;;;;;;;20.27;12.98;;;;;;;8.84;100.00;101860.19;683550;28;1002;-60
2021/10/14 01:29:58;;;;;;;21.57;13.07;;;;;;;8.83;100.00;101861.94;684304;28;1073;-60
2021/10/14 01:30:18;;;;;;;19.17;13.33;;;;;;;8.83;100.00;101856.72;684114;28;900;-59
2021/10/14 01:30:39;;;;;;;20.58;13.55;;;;;;;8.83;100.00;101863.63;683863;28;1281;-59
2021/10/14 01:30:59;;;;;;;20.45;13.73;;;;;;;8.82;100.00;101854.94;683765;28;3281;-59
2021/10/14 01:31:26;;;;;;;19.60;13.40;;;;;;;8.83;100.00;101861.03;683171;28;4501;-59
2021/10/14 01:31:47;;;;;;;22.50;13.93;;;;;;;8.82;100.00;101859.25;683297;28;1343;-58
2021/10/14 01:32:07;;;;;;;21.17;13.57;;;;;;;8.82;100.00;101862.75;682621;28;1072;-59
2021/10/14 01:32:28;;;;;;;20.65;13.48;;;;;;;8.85;100.00;101865.44;685114;28;1097;-60
2021/10/14 01:32:49;;;;;;;20.40;13.10;;;;;;;8.89;100.00;101862.88;682921;28;1036;-58
2021/10/14 01:33:11;;;;;;;19.67;12.70;;;;;;;8.91;100.00;101853.38;683963;28;1192;-58
2021/10/14 01:33:31;;;;;;;19.17;12.88;;;;;;;8.89;100.00;101861.16;684019;28;1077;-59
2021/10/14 01:33:53;;;;;;;18.58;12.60;;;;;;;8.88;100.00;101861.16;684106;28;1029;-60
2021/10/14 01:34:15;;;;;;;19.13;13.05;;;;;;;8.88;100.00;101861.16;684423;28;2179;-59
2021/10/14 01:34:35;;;;;;;19.70;12.73;;;;;;;8.86;100.00;101861.97;683168;28;4520;-59
2021/10/14 01:34:55;;;;;;;19.45;13.02;;;;;;;8.87;100.00;101860.25;684013;28;1272;-58
2021/10/14 01:35:17;;;;;;;18.83;13.00;;;;;;;8.86;100.00;101861.97;684305;28;972;-57
2021/10/14 01:35:38;;;;;;;19.52;12.93;;;;;;;8.86;100.00;101861.09;683753;28;1053;-58
2021/10/14 01:35:58;;;;;;;18.93;12.97;;;;;;;8.85;100.00;101864.56;684187;28;1061;-58
2021/10/14 01:36:18;;;;;;;19.05;13.25;;;;;;;8.85;100.00;101865.44;682789;28;1108;-60
2021/10/14 01:36:39;;;;;;;19.07;12.90;;;;;;;8.84;100.00;101863.66;683717;28;1112;-58
2021/10/14 01:36:59;;;;;;;18.27;12.57;;;;;;;8.84;100.00;101862.78;682987;28;1188;-58
2021/10/14 01:37:19;;;;;;;17.07;11.97;;;;;;;8.83;100.00;101864.53;682733;28;4420;-60